UTC: 16.05.2022 18:15:00
ilmateenistus.ee keskkonnaagentuur.ee
EETN Tallinn
FTEO31 EETN 161700
TAF EETN 161730Z 1618/1718 29013KT 9999 SCT030 TEMPO 1618/1622
    SCT025CB TEMPO 1706/1713 34016G27KT=

METAR EETN 161750Z 30010KT 9999 FEW030CB 10/02 Q1014 NOSIG=
Tallinn
EEKA Kärdla
FCEO32 EETN 161200 AAA
TAF AMD EEKA 161600Z 1613/1619 CNL=

METAR EEKA 161750Z NIL=
Kärdla
EEKE Kuressaare
FCEO32 EETN 161400 AAA
TAF AMD EEKE 161800Z 1615/1621 CNL=

METAR EEKE 161750Z AUTO 33009KT 280V360 9999NDV NCD 08/01 Q1018=
Kuressaare
EEPU Pärnu
METAR EEPU 161750Z AUTO 29009KT 9999 NCD 09/03 Q1016=
Pärnu
EETU Tartu
METAR EETU 161750Z AUTO 30005KT 270V330 9999 FEW057/// 11/M00 Q1013=
Tartu
EEEI Ämari
METAR EEEI 161750Z 30011KT 9999 VCSH FEW025TCU 09/03 Q1015 NOSIG=
Ämari